createdAt,value
2016-08-30T00:00:20.753Z,15.87
2016-08-30T00:01:17.597Z,15.9
2016-08-30T00:02:13.987Z,15.86
2016-08-30T00:03:14.081Z,15.84
2016-08-30T00:04:14.040Z,15.86
2016-08-30T00:05:13.593Z,15.87
2016-08-30T00:06:13.379Z,15.84
2016-08-30T00:07:13.427Z,15.9
2016-08-30T00:08:13.442Z,15.76
2016-08-30T00:09:13.465Z,15.83
2016-08-30T00:10:13.510Z,15.8
2016-08-30T00:11:28.440Z,15.72
2016-08-30T00:12:28.525Z,15.69
2016-08-30T00:13:13.571Z,15.71
2016-08-30T00:14:13.586Z,15.69
2016-08-30T00:15:28.549Z,15.72
2016-08-30T00:16:13.648Z,15.71
2016-08-30T00:17:13.665Z,15.68
2016-08-30T00:18:13.689Z,15.68
2016-08-30T00:19:13.716Z,15.69
2016-08-30T00:20:13.750Z,15.68
2016-08-30T00:21:13.775Z,15.59
2016-08-30T00:22:13.815Z,15.56
2016-08-30T00:23:13.831Z,15.57
2016-08-30T00:24:13.850Z,15.69
2016-08-30T00:25:13.881Z,15.57
2016-08-30T00:26:28.820Z,15.57
2016-08-30T00:27:13.941Z,15.59
2016-08-30T00:28:13.959Z,15.5
2016-08-30T00:29:13.965Z,15.54
2016-08-30T00:30:14.156Z,15.53
2016-08-30T00:31:14.014Z,15.51
2016-08-30T00:32:14.041Z,15.44
2016-08-30T00:33:14.070Z,15.5
2016-08-30T00:34:14.109Z,15.51
2016-08-30T00:36:14.166Z,15.49
2016-08-30T00:37:14.185Z,15.46
2016-08-30T00:38:14.198Z,15.41
2016-08-30T00:39:14.219Z,15.46
2016-08-30T00:40:14.256Z,15.35
2016-08-30T00:41:14.273Z,15.38
2016-08-30T00:42:14.299Z,15.41
2016-08-30T00:43:14.323Z,15.39
2016-08-30T00:44:14.357Z,15.32
2016-08-30T00:45:14.380Z,15.43
2016-08-30T00:46:29.338Z,15.23
2016-08-30T00:47:14.420Z,15.28
2016-08-30T00:48:15.161Z,15.29
2016-08-30T00:49:14.486Z,15.28
2016-08-30T00:50:14.501Z,15.32
2016-08-30T00:51:14.529Z,15.29
2016-08-30T00:52:14.552Z,15.29
2016-08-30T00:53:14.579Z,15.23
2016-08-30T00:54:14.605Z,15.25
2016-08-30T00:56:14.654Z,15.23
2016-08-30T00:57:14.676Z,15.27
2016-08-30T00:58:29.631Z,15.27
2016-08-30T01:00:14.818Z,15.09
2016-08-30T01:01:14.780Z,15.06
2016-08-30T01:02:14.793Z,15.13
2016-08-30T01:03:14.825Z,15.1
2016-08-30T01:04:14.845Z,15.06
2016-08-30T01:05:14.882Z,15.1
2016-08-30T01:06:14.898Z,14.94
2016-08-30T01:07:14.926Z,15.06
2016-08-30T01:08:14.970Z,14.98
2016-08-30T01:09:14.978Z,15.03
2016-08-30T01:10:15.019Z,15.01
2016-08-30T01:12:15.062Z,14.98
2016-08-30T01:13:15.071Z,14.96
2016-08-30T01:14:30.076Z,15.06
2016-08-30T01:16:15.152Z,14.92
2016-08-30T01:17:15.231Z,14.95
2016-08-30T01:18:30.133Z,14.92
2016-08-30T01:20:15.261Z,15.02
2016-08-30T01:21:15.276Z,14.94
2016-08-30T01:22:15.312Z,14.91
2016-08-30T01:23:15.323Z,14.94
2016-08-30T01:24:15.346Z,14.89
2016-08-30T01:25:15.703Z,14.96
2016-08-30T01:26:16.114Z,14.89
2016-08-30T01:27:15.421Z,14.81
2016-08-30T01:29:15.501Z,14.83
2016-08-30T01:30:30.424Z,14.78
2016-08-30T01:31:15.534Z,14.75
2016-08-30T01:32:15.556Z,14.83
2016-08-30T01:33:15.575Z,14.8
2016-08-30T01:34:15.606Z,14.78
2016-08-30T01:35:15.652Z,14.78
2016-08-30T01:36:15.651Z,14.72
2016-08-30T01:37:15.686Z,14.77
2016-08-30T01:38:15.696Z,14.62
2016-08-30T01:39:15.751Z,14.73
2016-08-30T01:40:15.944Z,14.73
2016-08-30T01:41:15.789Z,14.72
2016-08-30T01:42:15.797Z,14.64
2016-08-30T01:43:15.845Z,14.68
2016-08-30T01:44:15.854Z,14.64
2016-08-30T01:45:15.883Z,14.64
2016-08-30T01:46:30.826Z,14.58
2016-08-30T01:47:15.938Z,14.6
2016-08-30T01:48:15.970Z,14.62
2016-08-30T01:49:15.973Z,14.6
2016-08-30T01:50:16.402Z,14.64
2016-08-30T01:51:16.023Z,14.55
2016-08-30T01:53:16.093Z,14.6
2016-08-30T01:54:16.103Z,14.57
2016-08-30T01:55:16.131Z,14.55
2016-08-30T01:56:16.156Z,14.65
2016-08-30T01:57:16.184Z,14.54
2016-08-30T01:58:31.125Z,14.6
2016-08-30T01:59:16.227Z,14.51
2016-08-30T02:00:16.284Z,14.58
2016-08-30T02:01:31.203Z,14.51
2016-08-30T02:02:16.317Z,14.4
2016-08-30T02:03:31.249Z,14.52
2016-08-30T02:04:16.357Z,14.5
2016-08-30T02:05:16.731Z,14.51
2016-08-30T02:06:16.392Z,14.46
2016-08-30T02:07:16.421Z,14.45
2016-08-30T02:08:16.469Z,14.45
2016-08-30T02:09:16.468Z,14.47
2016-08-30T02:10:16.763Z,14.46
2016-08-30T02:11:16.521Z,14.46
2016-08-30T02:12:16.556Z,14.42
2016-08-30T02:13:16.565Z,14.37
2016-08-30T02:14:16.602Z,14.36
2016-08-30T02:15:16.676Z,14.29
2016-08-30T02:16:16.649Z,14.33
2016-08-30T02:17:16.690Z,14.32
2016-08-30T02:18:31.621Z,14.21
2016-08-30T02:19:16.731Z,14.25
2016-08-30T02:20:16.746Z,14.2
2016-08-30T02:22:16.790Z,14.21
2016-08-30T02:23:16.824Z,14.18
2016-08-30T02:24:16.854Z,14.21
2016-08-30T02:25:16.918Z,14.25
2016-08-30T02:26:16.912Z,14.29
2016-08-30T02:27:16.911Z,14.21
2016-08-30T02:28:16.961Z,14.36
2016-08-30T02:29:16.985Z,14.28
2016-08-30T02:30:16.985Z,14.29
2016-08-30T02:31:17.028Z,14.15
2016-08-30T02:32:31.965Z,14.17
2016-08-30T02:33:31.990Z,14.18
2016-08-30T02:34:17.090Z,14.18
2016-08-30T02:35:17.110Z,14.18
2016-08-30T02:36:17.830Z,14.17
2016-08-30T02:37:17.176Z,14.21
2016-08-30T02:38:17.186Z,14.22
2016-08-30T02:39:17.227Z,14.2
2016-08-30T02:40:32.169Z,14.14
2016-08-30T02:41:17.256Z,14.18
2016-08-30T02:42:17.283Z,14.14
2016-08-30T02:43:17.314Z,14.15
2016-08-30T02:44:17.334Z,14.18
2016-08-30T02:45:17.364Z,14.12
2016-08-30T02:46:17.386Z,14.17
2016-08-30T02:47:17.406Z,14.24
2016-08-30T02:48:17.445Z,14.18
2016-08-30T02:49:32.385Z,14.09
2016-08-30T02:50:17.487Z,14.07
2016-08-30T02:51:17.534Z,14.12
2016-08-30T02:52:17.537Z,14.14
2016-08-30T02:53:32.491Z,14.07
2016-08-30T02:54:17.588Z,14.09
2016-08-30T02:55:18.461Z,14.03
2016-08-30T02:56:17.635Z,14.02
2016-08-30T02:57:17.671Z,14.04
2016-08-30T02:59:17.711Z,14.03
2016-08-30T03:00:18.081Z,13.97
2016-08-30T03:01:17.767Z,14.02
2016-08-30T03:02:17.778Z,13.97
2016-08-30T03:03:17.818Z,13.97
2016-08-30T03:04:17.826Z,13.99
2016-08-30T03:05:32.778Z,13.99
2016-08-30T03:06:32.797Z,14.04
2016-08-30T03:07:17.913Z,14.02
2016-08-30T03:08:17.922Z,13.95
2016-08-30T03:09:17.949Z,14.04
2016-08-30T03:10:18.051Z,13.99
2016-08-30T03:11:17.998Z,13.92
2016-08-30T03:12:18.025Z,13.97
2016-08-30T03:13:18.057Z,13.95
2016-08-30T03:14:18.070Z,13.97
2016-08-30T03:15:18.098Z,13.96
2016-08-30T03:16:18.135Z,13.88
2016-08-30T03:17:18.160Z,13.89
2016-08-30T03:18:18.183Z,13.91
2016-08-30T03:19:18.199Z,13.96
2016-08-30T03:20:18.864Z,13.91
2016-08-30T03:21:33.165Z,13.88
2016-08-30T03:22:18.289Z,13.88
2016-08-30T03:23:18.291Z,13.88
2016-08-30T03:24:18.314Z,13.88
2016-08-30T03:25:18.346Z,13.71
2016-08-30T03:26:18.369Z,13.71
2016-08-30T03:27:18.384Z,13.77
2016-08-30T03:28:18.440Z,13.79
2016-08-30T03:29:18.442Z,13.78
2016-08-30T03:30:18.464Z,13.69
2016-08-30T03:31:18.491Z,13.64
2016-08-30T03:32:18.510Z,13.62
2016-08-30T03:33:18.545Z,13.63
2016-08-30T03:34:18.560Z,13.64
2016-08-30T03:35:18.590Z,13.7
2016-08-30T03:36:33.542Z,13.62
2016-08-30T03:37:18.647Z,13.67
2016-08-30T03:38:18.660Z,13.62
2016-08-30T03:39:18.684Z,13.64
2016-08-30T03:40:18.708Z,13.67
2016-08-30T03:41:18.730Z,13.62
2016-08-30T03:42:18.777Z,13.62
2016-08-30T03:43:18.783Z,13.64
2016-08-30T03:44:18.812Z,13.6
2016-08-30T03:45:18.840Z,13.59
2016-08-30T03:46:18.866Z,13.59
2016-08-30T03:47:19.580Z,13.62
2016-08-30T03:48:18.901Z,13.62
2016-08-30T03:49:18.929Z,13.6
2016-08-30T03:50:18.978Z,13.6
2016-08-30T03:52:19.022Z,13.63
2016-08-30T03:53:33.948Z,13.54
2016-08-30T03:55:19.072Z,13.66
2016-08-30T03:57:19.124Z,13.51
2016-08-30T03:58:19.144Z,13.63
2016-08-30T03:59:19.180Z,13.59
2016-08-30T04:00:19.199Z,13.49
2016-08-30T04:01:19.231Z,13.57
2016-08-30T04:02:19.247Z,13.57
2016-08-30T04:03:19.283Z,13.66
2016-08-30T04:04:19.290Z,13.67
2016-08-30T04:05:19.660Z,13.49
2016-08-30T04:06:19.337Z,13.52
2016-08-30T04:07:19.364Z,13.52
2016-08-30T04:08:34.313Z,13.51
2016-08-30T04:09:19.415Z,13.52
2016-08-30T04:10:19.531Z,13.54
2016-08-30T04:12:34.423Z,13.54
2016-08-30T04:13:19.507Z,13.55
2016-08-30T04:14:19.541Z,13.45
2016-08-30T04:15:19.571Z,13.48
2016-08-30T04:16:19.587Z,13.51
2016-08-30T04:17:19.611Z,13.51
2016-08-30T04:18:19.639Z,13.48
2016-08-30T04:19:19.665Z,13.45
2016-08-30T04:20:19.711Z,13.51
2016-08-30T04:21:19.706Z,13.51
2016-08-30T04:22:19.747Z,13.52
2016-08-30T04:23:19.765Z,13.57
2016-08-30T04:24:34.707Z,13.54
2016-08-30T04:25:34.795Z,13.52
2016-08-30T04:26:19.834Z,13.55
2016-08-30T04:27:19.910Z,13.59
2016-08-30T04:28:19.878Z,13.49
2016-08-30T04:29:19.908Z,13.59
2016-08-30T04:30:19.923Z,13.57
2016-08-30T04:31:19.950Z,13.54
2016-08-30T04:33:20.001Z,13.62
2016-08-30T04:34:20.027Z,13.6
2016-08-30T04:35:20.081Z,13.51
2016-08-30T04:36:20.075Z,13.66
2016-08-30T04:37:20.115Z,13.6
2016-08-30T04:38:20.822Z,13.54
2016-08-30T04:39:20.152Z,13.57
2016-08-30T04:40:35.091Z,13.6
2016-08-30T04:41:20.903Z,13.62
2016-08-30T04:42:20.232Z,13.57
2016-08-30T04:43:20.263Z,13.62
2016-08-30T04:44:20.266Z,13.59
2016-08-30T04:45:20.291Z,13.62
2016-08-30T04:46:20.316Z,13.63
2016-08-30T04:47:20.338Z,13.75
2016-08-30T04:48:20.363Z,14.04
2016-08-30T04:49:20.402Z,14.5
2016-08-30T04:50:20.417Z,14.94
2016-08-30T04:51:20.439Z,15.6
2016-08-30T04:52:20.459Z,16
2016-08-30T04:53:20.500Z,16.31
2016-08-30T04:54:20.513Z,16.09
2016-08-30T04:55:20.540Z,16.24
2016-08-30T04:56:35.484Z,16.49
2016-08-30T04:57:20.590Z,16.73
2016-08-30T04:58:20.631Z,17.21
2016-08-30T04:59:20.655Z,17.4
2016-08-30T05:00:21.042Z,17.71
2016-08-30T05:01:20.700Z,18.21
2016-08-30T05:02:20.725Z,18.44
2016-08-30T05:03:20.766Z,18.58
2016-08-30T05:04:20.775Z,18.62
2016-08-30T05:05:20.800Z,18.36
2016-08-30T05:06:20.832Z,18.44
2016-08-30T05:07:20.865Z,18.35
2016-08-30T05:08:20.882Z,18.47
2016-08-30T05:09:20.930Z,18.6
2016-08-30T05:10:20.953Z,18.72
2016-08-30T05:11:35.891Z,19.08
2016-08-30T05:12:20.997Z,18.78
2016-08-30T05:13:21.029Z,18.42
2016-08-30T05:14:21.058Z,17.79
2016-08-30T05:15:36.017Z,17.07
2016-08-30T05:16:21.115Z,16.96
2016-08-30T05:17:21.161Z,16.81
2016-08-30T05:18:21.173Z,16.52
2016-08-30T05:19:21.198Z,16.31
2016-08-30T05:20:21.246Z,16.2
2016-08-30T05:21:21.260Z,16.14
2016-08-30T05:22:21.282Z,16
2016-08-30T05:23:21.300Z,15.96
2016-08-30T05:24:21.361Z,15.87
2016-08-30T05:25:36.286Z,15.89
2016-08-30T05:26:21.394Z,15.86
2016-08-30T05:27:21.472Z,15.74
2016-08-30T05:28:21.494Z,15.68
2016-08-30T05:29:21.466Z,15.8
2016-08-30T05:30:21.718Z,15.72
2016-08-30T05:31:21.545Z,15.71
2016-08-30T05:32:37.169Z,15.65
2016-08-30T05:33:21.581Z,15.69
2016-08-30T05:34:21.618Z,15.6
2016-08-30T05:35:22.314Z,15.6
2016-08-30T05:36:21.697Z,15.72
2016-08-30T05:37:21.678Z,15.67
2016-08-30T05:38:22.514Z,15.65
2016-08-30T05:39:21.727Z,16.02
2016-08-30T05:40:21.760Z,16.24
2016-08-30T05:41:21.812Z,16.42
2016-08-30T05:43:36.770Z,16.39
2016-08-30T05:44:21.872Z,16.39
2016-08-30T05:46:21.925Z,16.14
2016-08-30T05:47:21.947Z,16.21
2016-08-30T05:48:21.967Z,16.09
2016-08-30T05:49:21.996Z,16.25
2016-08-30T05:50:22.691Z,16.33
2016-08-30T05:51:22.044Z,16.42
2016-08-30T05:52:22.080Z,16.56
2016-08-30T05:57:07.799Z,17.72
2016-08-30T05:58:08.510Z,18.08
2016-08-30T05:59:10.966Z,18.41
2016-08-30T06:00:15.616Z,18.82
2016-08-30T06:01:23.654Z,18.5
2016-08-30T06:02:23.712Z,18.81
2016-08-30T06:03:07.964Z,19.21
2016-08-30T06:04:08.007Z,19.58
2016-08-30T06:05:09.114Z,19.54
2016-08-30T06:06:08.904Z,19.8
2016-08-30T06:07:14.738Z,20.24
2016-08-30T06:08:23.032Z,20.32
2016-08-30T06:09:13.661Z,20.23
2016-08-30T06:11:08.968Z,20.67
2016-08-30T06:12:08.367Z,20.87
2016-08-30T06:13:08.326Z,21.31
2016-08-30T06:14:08.285Z,21.65
2016-08-30T06:15:17.818Z,21.86
2016-08-30T06:16:08.392Z,21.5
2016-08-30T06:17:08.398Z,21.58
2016-08-30T06:18:08.483Z,21.44
2016-08-30T06:19:08.452Z,21.07
2016-08-30T06:20:18.111Z,21.32
2016-08-30T06:21:08.550Z,21.31
2016-08-30T06:22:09.337Z,21.69
2016-08-30T06:23:08.594Z,21.98
2016-08-30T06:24:23.543Z,22.33
2016-08-30T06:25:08.664Z,22.55
2016-08-30T06:26:08.708Z,22.1
2016-08-30T06:27:08.772Z,22.14
2016-08-30T06:28:08.754Z,22.24
2016-08-30T06:29:08.814Z,21.96
2016-08-30T06:30:08.831Z,22.1
2016-08-30T06:31:08.857Z,22.55
2016-08-30T06:32:09.939Z,22.17
2016-08-30T06:33:08.930Z,21.99
2016-08-30T06:34:08.971Z,21.47
2016-08-30T06:35:09.119Z,21.44
2016-08-30T06:36:09.031Z,21.67
2016-08-30T06:37:09.059Z,21.5
2016-08-30T06:38:09.096Z,21.34
2016-08-30T06:39:24.122Z,21.9
2016-08-30T06:40:09.402Z,21.8
2016-08-30T06:41:09.202Z,21.62
2016-08-30T06:42:09.242Z,21.82
2016-08-30T06:43:09.276Z,21.74
2016-08-30T06:44:09.302Z,21.92
2016-08-30T06:45:09.379Z,22.21
2016-08-30T06:46:09.379Z,22.61
2016-08-30T06:47:09.461Z,22.83
2016-08-30T06:48:09.459Z,22.98
2016-08-30T06:49:09.513Z,23.33
2016-08-30T06:50:09.998Z,23.75
2016-08-30T06:51:09.553Z,23.68
2016-08-30T06:52:09.628Z,24.13
2016-08-30T06:53:09.620Z,24.25
2016-08-30T06:54:09.666Z,24.13
2016-08-30T06:55:24.616Z,24.02
2016-08-30T06:56:24.653Z,24.22
2016-08-30T06:57:09.779Z,24.15
2016-08-30T06:58:10.502Z,24.45
2016-08-30T06:59:10.565Z,24.76
2016-08-30T07:00:10.404Z,24.88
2016-08-30T07:01:10.156Z,24.58
2016-08-30T07:02:09.939Z,24
2016-08-30T07:03:09.987Z,24.09
2016-08-30T07:04:10.014Z,24.28
2016-08-30T07:05:10.051Z,24.09
2016-08-30T07:06:10.106Z,23.57
2016-08-30T07:07:10.115Z,23.35
2016-08-30T07:08:10.163Z,23.84
2016-08-30T07:09:10.203Z,24.43
2016-08-30T07:10:10.233Z,24.49
2016-08-30T07:12:10.301Z,24.42
2016-08-30T07:13:10.357Z,25.03
2016-08-30T07:14:10.397Z,24.69
2016-08-30T07:15:10.408Z,24.96
2016-08-30T07:16:10.467Z,25.2
2016-08-30T07:17:10.524Z,24.53
2016-08-30T07:18:10.516Z,24.52
2016-08-30T07:19:10.560Z,24.58
2016-08-30T07:20:16.998Z,24.58
2016-08-30T07:21:11.313Z,24.69
2016-08-30T07:24:10.739Z,24.73
2016-08-30T07:25:14.895Z,24.57
2016-08-30T07:26:12.696Z,24.9
2016-08-30T07:27:25.782Z,24.71
2016-08-30T07:28:10.883Z,24.84
2016-08-30T07:29:10.913Z,24.69
2016-08-30T07:30:12.290Z,24.47
2016-08-30T07:31:10.989Z,24.15
2016-08-30T07:32:11.077Z,24.45
2016-08-30T07:33:11.056Z,24.57
2016-08-30T07:34:11.100Z,24.95
2016-08-30T07:35:11.139Z,24.6
2016-08-30T07:36:11.175Z,25.24
2016-08-30T07:37:11.229Z,25.54
2016-08-30T07:38:11.259Z,24.95
2016-08-30T07:39:26.205Z,24.8
2016-08-30T07:40:12.368Z,24.91
2016-08-30T07:41:26.275Z,25.52
2016-08-30T07:42:11.384Z,25.2
2016-08-30T07:43:26.344Z,24.88
2016-08-30T07:44:11.472Z,24.85
2016-08-30T07:45:11.506Z,24.61
2016-08-30T07:46:11.544Z,24.25
2016-08-30T07:47:11.585Z,24.57
2016-08-30T07:48:11.605Z,24.8
2016-08-30T07:49:11.640Z,24.68
2016-08-30T07:50:11.675Z,24.76
2016-08-30T07:51:11.715Z,24.58
2016-08-30T07:52:11.791Z,24.58
2016-08-30T07:53:11.809Z,24.49
2016-08-30T07:54:11.812Z,24.78
2016-08-30T07:55:11.845Z,24.58
2016-08-30T07:56:11.896Z,24
2016-08-30T07:58:11.966Z,24.03
2016-08-30T07:59:26.920Z,24.46
2016-08-30T08:00:12.867Z,24.58
2016-08-30T08:01:12.073Z,23.91
2016-08-30T08:02:12.115Z,23.7
2016-08-30T08:03:12.138Z,23.78
2016-08-30T08:04:12.192Z,24.28
2016-08-30T08:05:12.212Z,24.69
2016-08-30T08:06:12.245Z,24.81
2016-08-30T08:07:12.281Z,24.13
2016-08-30T08:08:12.326Z,24.3
2016-08-30T08:09:12.354Z,23.7
2016-08-30T08:10:12.386Z,23.8
2016-08-30T08:11:12.417Z,24.47
2016-08-30T08:12:12.455Z,24.6
2016-08-30T08:13:12.501Z,24.6
2016-08-30T08:14:27.449Z,24.96
2016-08-30T08:15:12.572Z,25.03
2016-08-30T08:16:12.813Z,25.03
2016-08-30T08:17:12.640Z,25.28
2016-08-30T08:18:12.671Z,25.46
2016-08-30T08:19:12.712Z,25.23
2016-08-30T08:20:12.734Z,24.91
2016-08-30T08:21:12.784Z,24.5
2016-08-30T08:22:12.813Z,25.06
2016-08-30T08:23:13.549Z,25.62
2016-08-30T08:24:12.871Z,25.51
2016-08-30T08:25:12.927Z,25.46
2016-08-30T08:26:12.953Z,25.72
2016-08-30T08:27:12.985Z,25.88
2016-08-30T08:28:13.026Z,25.23
2016-08-30T08:29:27.980Z,24.99
2016-08-30T08:30:28.008Z,24.35
2016-08-30T08:31:28.044Z,24.31
2016-08-30T08:32:13.166Z,24.43
2016-08-30T08:33:13.207Z,24.43
2016-08-30T08:35:13.258Z,24.22
2016-08-30T08:36:13.291Z,24.42
2016-08-30T08:37:13.408Z,24.81
2016-08-30T08:38:13.380Z,25.15
2016-08-30T08:39:13.394Z,25.46
2016-08-30T08:40:13.435Z,25.21
2016-08-30T08:42:11.647Z,25.36
2016-08-30T08:42:34.884Z,25.17
2016-08-30T08:43:34.947Z,25.2
2016-08-30T08:44:36.903Z,25.42
2016-08-30T08:45:36.418Z,25.61
2016-08-30T08:46:35.065Z,25.51
2016-08-30T08:47:35.522Z,25.57
2016-08-30T08:48:50.018Z,25.75
2016-08-30T08:49:35.172Z,25.75
2016-08-30T08:50:35.450Z,25.99
2016-08-30T08:51:35.275Z,26.12
2016-08-30T08:52:35.918Z,26.2
2016-08-30T08:53:35.316Z,25.98
2016-08-30T08:54:35.303Z,25.72
2016-08-30T08:55:35.334Z,25.95
2016-08-30T08:56:35.372Z,25.73
2016-08-30T08:57:35.449Z,25.5
2016-08-30T08:58:35.520Z,25.76
2016-08-30T09:00:35.869Z,25.69
2016-08-30T09:01:35.528Z,26.32
2016-08-30T09:02:35.567Z,26.73
2016-08-30T09:03:50.531Z,26.51
2016-08-30T09:04:36.341Z,26.72
2016-08-30T09:05:35.682Z,25.99
2016-08-30T09:06:35.792Z,24.96
2016-08-30T09:07:36.448Z,24.3
2016-08-30T09:08:35.805Z,24.57
2016-08-30T09:10:35.867Z,25.35
2016-08-30T09:11:35.867Z,26.17
2016-08-30T09:12:35.910Z,26.29
2016-08-30T09:13:35.938Z,26.4
2016-08-30T09:14:35.977Z,25.9
2016-08-30T09:15:50.932Z,25.17
2016-08-30T09:16:36.038Z,24.8
2016-08-30T09:17:36.092Z,24.42
2016-08-30T09:18:36.108Z,24.15
2016-08-30T09:19:36.144Z,23.75
2016-08-30T09:20:51.099Z,24
2016-08-30T09:21:36.211Z,24.46
2016-08-30T09:22:51.175Z,24.61
2016-08-30T09:23:36.271Z,24.67
2016-08-30T09:24:36.304Z,25.18
2016-08-30T09:25:36.331Z,24.88
2016-08-30T09:26:36.388Z,24.67
2016-08-30T09:27:36.431Z,24.5
2016-08-30T09:28:36.438Z,24.45
2016-08-30T09:29:36.473Z,24.58
2016-08-30T09:30:36.507Z,24.37
2016-08-30T09:31:36.538Z,24.18
2016-08-30T09:32:36.569Z,24.39
2016-08-30T09:33:36.611Z,24.13
2016-08-30T09:34:36.685Z,24.22
2016-08-30T09:35:51.598Z,24.13
2016-08-30T09:36:36.699Z,24.62
2016-08-30T09:37:36.738Z,25.14
2016-08-30T09:38:36.819Z,25.14
2016-08-30T09:39:36.800Z,24.43
2016-08-30T09:40:37.601Z,23.8
2016-08-30T09:41:36.872Z,23.76
2016-08-30T09:42:36.908Z,23.46
2016-08-30T09:43:36.927Z,23.61
2016-08-30T09:44:36.965Z,24.02
2016-08-30T09:45:36.985Z,24.4
2016-08-30T09:46:37.014Z,24.4
2016-08-30T09:47:37.050Z,24.43
2016-08-30T09:48:37.112Z,24.68
2016-08-30T09:50:37.147Z,24.68
2016-08-30T09:51:52.118Z,24.57
2016-08-30T09:52:37.231Z,24.73
2016-08-30T09:53:52.167Z,24.55
2016-08-30T09:54:37.274Z,24.96
2016-08-30T09:55:52.247Z,25.21
2016-08-30T09:56:37.338Z,25.2
2016-08-30T09:57:37.396Z,24.77
2016-08-30T09:58:37.410Z,24.43
2016-08-30T09:59:37.441Z,24.34
2016-08-30T10:00:37.511Z,24.37
2016-08-30T10:01:37.493Z,24.27
2016-08-30T10:02:37.533Z,23.95
2016-08-30T10:03:37.576Z,23.93
2016-08-30T10:04:37.619Z,23.93
2016-08-30T10:05:37.789Z,24.28
2016-08-30T10:06:37.654Z,24.58
2016-08-30T10:07:52.626Z,24.6
2016-08-30T10:08:52.640Z,25.03
2016-08-30T10:09:37.748Z,25.08
2016-08-30T10:10:37.778Z,24.52
2016-08-30T10:11:37.819Z,24.42
2016-08-30T10:12:37.844Z,24.69
2016-08-30T10:13:37.889Z,24.55
2016-08-30T10:14:37.906Z,24.55
2016-08-30T10:16:37.969Z,24.18
2016-08-30T10:17:38.025Z,24.06
2016-08-30T10:18:38.030Z,23.87
2016-08-30T10:19:38.070Z,24.43
2016-08-30T10:20:38.095Z,24.81
2016-08-30T10:21:38.140Z,25.06
2016-08-30T10:22:38.154Z,25.14
2016-08-30T10:23:53.111Z,25.46
2016-08-30T10:24:53.146Z,25.55
2016-08-30T10:25:38.266Z,25.5
2016-08-30T10:26:38.286Z,25.09
2016-08-30T10:27:38.322Z,24.95
2016-08-30T10:28:38.341Z,24.53
2016-08-30T10:29:38.372Z,24.45
2016-08-30T10:30:38.425Z,24.77
2016-08-30T10:31:38.440Z,24.91
2016-08-30T10:32:38.485Z,25.05
2016-08-30T10:33:38.517Z,25.17
2016-08-30T10:34:38.546Z,25.28
2016-08-30T10:35:53.492Z,25.17
2016-08-30T10:36:38.602Z,25.09
2016-08-30T10:37:38.630Z,25.27
2016-08-30T10:38:53.584Z,25.36
2016-08-30T10:39:38.750Z,25.69
2016-08-30T10:40:38.721Z,25.67
2016-08-30T10:41:38.772Z,25.61
2016-08-30T10:42:38.787Z,25.75
2016-08-30T10:43:38.840Z,26.02
2016-08-30T10:44:38.852Z,26.33
2016-08-30T10:45:38.880Z,26.23
2016-08-30T10:46:38.912Z,25.7
2016-08-30T10:47:38.962Z,25.25
2016-08-30T10:48:38.973Z,25.06
2016-08-30T10:49:39.015Z,24.78
2016-08-30T10:50:39.031Z,24.64
2016-08-30T10:51:39.088Z,24.85
2016-08-30T10:53:39.127Z,24.1
2016-08-30T10:54:54.090Z,23.85
2016-08-30T10:55:39.195Z,23.97
2016-08-30T10:56:54.150Z,24.08
2016-08-30T10:57:39.266Z,23.88
2016-08-30T10:58:54.227Z,23.66
2016-08-30T10:59:39.313Z,23.61
2016-08-30T11:00:39.343Z,23.65
2016-08-30T11:01:39.387Z,23.97
2016-08-30T11:02:39.412Z,23.91
2016-08-30T11:03:39.447Z,23.63
2016-08-30T11:04:39.476Z,23.73
2016-08-30T11:05:39.520Z,23.88
2016-08-30T11:07:54.485Z,23.75
2016-08-30T11:08:39.584Z,23.88
2016-08-30T11:09:39.630Z,23.76
2016-08-30T11:10:54.575Z,23.76
2016-08-30T11:11:54.608Z,23.28
2016-08-30T11:12:39.715Z,23.33
2016-08-30T11:13:54.676Z,23.33
2016-08-30T11:14:39.784Z,23.42
2016-08-30T11:15:39.813Z,23.43
2016-08-30T11:16:39.827Z,23.47
2016-08-30T11:17:39.857Z,23.4
2016-08-30T11:18:39.905Z,23.04
2016-08-30T11:19:39.930Z,22.98
2016-08-30T11:20:39.957Z,22.82
2016-08-30T11:21:39.990Z,22.62
2016-08-30T11:22:40.008Z,22.91
2016-08-30T11:23:40.037Z,23.1
2016-08-30T11:24:40.070Z,23.22
2016-08-30T11:25:40.121Z,23.19
2016-08-30T11:26:55.059Z,23.25
2016-08-30T11:27:40.184Z,23.35
2016-08-30T11:28:40.191Z,23.01
2016-08-30T11:29:40.239Z,22.98
2016-08-30T11:30:40.250Z,23.02
2016-08-30T11:31:40.277Z,23.23
2016-08-30T11:32:40.303Z,23.15
2016-08-30T11:33:40.345Z,23.07
2016-08-30T11:34:40.372Z,23.17
2016-08-30T11:35:40.401Z,23.12
2016-08-30T11:36:40.437Z,22.95
2016-08-30T11:37:40.480Z,23.05
2016-08-30T11:38:40.497Z,23.28
2016-08-30T11:39:40.538Z,23.31
2016-08-30T11:40:40.544Z,23.27
2016-08-30T11:41:40.584Z,23.33
2016-08-30T11:42:55.577Z,23.05
2016-08-30T11:43:55.570Z,22.85
2016-08-30T11:44:40.679Z,22.76
2016-08-30T11:45:40.696Z,22.77
2016-08-30T11:46:40.727Z,22.97
2016-08-30T11:47:40.748Z,22.97
2016-08-30T11:48:40.795Z,23.02
2016-08-30T11:49:40.803Z,23.15
2016-08-30T11:51:40.874Z,23.69
2016-08-30T11:52:40.905Z,23.91
2016-08-30T11:53:40.920Z,24.15
2016-08-30T11:54:40.966Z,24.42
2016-08-30T11:55:40.989Z,24.55
2016-08-30T11:56:41.014Z,24.68
2016-08-30T11:58:56.015Z,24.64
2016-08-30T11:59:41.103Z,24.61
2016-08-30T12:01:41.164Z,23.97
2016-08-30T12:02:41.192Z,24.06
2016-08-30T12:03:41.224Z,24.43
2016-08-30T12:04:56.182Z,24.68
2016-08-30T12:05:41.276Z,24.76
2016-08-30T12:06:41.331Z,25.06
2016-08-30T12:08:41.389Z,25.35
2016-08-30T12:09:41.407Z,25.47
2016-08-30T12:10:41.432Z,25.5
2016-08-30T12:11:41.480Z,25.33
2016-08-30T12:12:41.487Z,25.38
2016-08-30T12:13:56.439Z,25.25
2016-08-30T12:14:56.468Z,25.17
2016-08-30T12:15:41.573Z,25.1
2016-08-30T12:16:41.619Z,25.08
2016-08-30T12:17:41.632Z,24.9
2016-08-30T12:18:56.602Z,24.65
2016-08-30T12:19:41.707Z,24.68
2016-08-30T12:20:41.723Z,24.71
2016-08-30T12:21:41.756Z,24.91
2016-08-30T12:22:41.787Z,25.13
2016-08-30T12:23:41.819Z,25.14
2016-08-30T12:24:41.839Z,25.32
2016-08-30T12:25:41.894Z,25.25
2016-08-30T12:26:41.904Z,25.1
2016-08-30T12:27:41.940Z,25.14
2016-08-30T12:28:41.971Z,25.2
2016-08-30T12:29:41.992Z,25.2
2016-08-30T12:30:42.022Z,25.2
2016-08-30T12:31:42.058Z,25.08
2016-08-30T12:32:42.086Z,24.84
2016-08-30T12:33:42.124Z,24.6
2016-08-30T12:34:42.138Z,24.62
2016-08-30T12:35:42.186Z,24.4
2016-08-30T12:36:42.221Z,24.45
2016-08-30T12:37:42.241Z,24.43
2016-08-30T12:38:42.266Z,24.37
2016-08-30T12:39:42.300Z,24.31
2016-08-30T12:40:42.334Z,24.43
2016-08-30T12:41:42.344Z,24.47
2016-08-30T12:43:42.418Z,24.03
2016-08-30T12:44:42.442Z,23.83
2016-08-30T12:45:57.401Z,23.66
2016-08-30T12:46:42.495Z,23.7
2016-08-30T12:48:42.555Z,24.25
2016-08-30T12:49:42.603Z,24.57
2016-08-30T12:50:42.628Z,24.52
2016-08-30T12:51:42.643Z,24.24
2016-08-30T12:52:42.668Z,24.09
2016-08-30T12:54:42.757Z,24.27
2016-08-30T12:55:42.756Z,24.09
2016-08-30T12:56:42.795Z,23.88
2016-08-30T12:57:42.822Z,23.75
2016-08-30T12:58:43.572Z,23.72
2016-08-30T13:00:43.001Z,23.78
2016-08-30T13:01:57.867Z,23.91
2016-08-30T13:02:57.887Z,24.1
2016-08-30T13:03:42.998Z,23.91
2016-08-30T13:04:43.078Z,23.73
2016-08-30T13:05:43.052Z,23.61
2016-08-30T13:06:58.017Z,23.66
2016-08-30T13:07:43.122Z,23.75
2016-08-30T13:08:43.148Z,23.84
2016-08-30T13:09:43.167Z,23.87
2016-08-30T13:10:43.904Z,24.08
2016-08-30T13:11:43.238Z,24.13
2016-08-30T13:12:43.273Z,23.8
2016-08-30T13:13:43.296Z,23.84
2016-08-30T13:14:43.327Z,23.88
2016-08-30T13:15:43.374Z,23.95
2016-08-30T13:16:58.299Z,24.05
2016-08-30T13:17:58.325Z,24.16
2016-08-30T13:18:43.443Z,24.13
2016-08-30T13:19:43.463Z,24
2016-08-30T13:20:58.427Z,23.55
2016-08-30T13:21:43.531Z,23.46
2016-08-30T13:22:43.553Z,23.55
2016-08-30T13:23:43.597Z,23.57
2016-08-30T13:24:43.612Z,23.55
2016-08-30T13:25:43.638Z,23.65
2016-08-30T13:26:43.668Z,23.5
2016-08-30T13:27:43.696Z,23.57
2016-08-30T13:28:43.724Z,23.55
2016-08-30T13:29:43.756Z,23.6
2016-08-30T13:30:43.804Z,23.72
2016-08-30T13:31:43.811Z,23.72
2016-08-30T13:33:58.799Z,23.83
2016-08-30T13:34:43.900Z,23.76
2016-08-30T13:35:43.932Z,23.69
2016-08-30T13:37:43.991Z,23.38
2016-08-30T13:38:44.013Z,23.48
2016-08-30T13:39:44.055Z,23.4